sensor_id;sensor_type;location;lat;lon;timestamp;P1;durP1;ratioP1;P2;durP2;ratioP2
62475;SDS011;50739;45.670;11.936;2023-10-09T00:03:39;21.83;;;13.43;;
62475;SDS011;50739;45.670;11.936;2023-10-09T00:08:43;22.42;;;13.90;;
62475;SDS011;50739;45.670;11.936;2023-10-09T00:13:51;25.90;;;13.32;;
62475;SDS011;50739;45.670;11.936;2023-10-09T00:18:59;23.23;;;13.25;;
62475;SDS011;50739;45.670;11.936;2023-10-09T00:24:14;20.67;;;13.15;;
62475;SDS011;50739;45.670;11.936;2023-10-09T00:29:24;22.85;;;13.73;;
62475;SDS011;50739;45.670;11.936;2023-10-09T00:34:36;21.42;;;13.35;;
62475;SDS011;50739;45.670;11.936;2023-10-09T00:39:41;25.90;;;14.45;;
62475;SDS011;50739;45.670;11.936;2023-10-09T00:44:44;24.15;;;14.75;;
62475;SDS011;50739;45.670;11.936;2023-10-09T00:49:51;27.55;;;15.07;;
62475;SDS011;50739;45.670;11.936;2023-10-09T00:54:59;23.48;;;14.20;;
62475;SDS011;50739;45.670;11.936;2023-10-09T01:00:05;25.40;;;14.48;;
62475;SDS011;50739;45.670;11.936;2023-10-09T01:05:25;24.65;;;14.55;;
62475;SDS011;50739;45.670;11.936;2023-10-09T01:10:29;24.02;;;15.00;;
62475;SDS011;50739;45.670;11.936;2023-10-09T01:15:51;29.00;;;15.97;;
62475;SDS011;50739;45.670;11.936;2023-10-09T01:20:56;24.92;;;14.52;;
62475;SDS011;50739;45.670;11.936;2023-10-09T01:25:59;22.95;;;14.55;;
62475;SDS011;50739;45.670;11.936;2023-10-09T01:31:02;24.83;;;15.43;;
62475;SDS011;50739;45.670;11.936;2023-10-09T01:36:06;25.75;;;15.60;;
62475;SDS011;50739;45.670;11.936;2023-10-09T01:41:14;27.90;;;15.03;;
62475;SDS011;50739;45.670;11.936;2023-10-09T01:46:20;24.13;;;14.70;;
62475;SDS011;50739;45.670;11.936;2023-10-09T01:51:23;27.48;;;14.98;;
62475;SDS011;50739;45.670;11.936;2023-10-09T01:56:27;27.80;;;14.75;;
62475;SDS011;50739;45.670;11.936;2023-10-09T02:01:29;25.70;;;15.07;;
62475;SDS011;50739;45.670;11.936;2023-10-09T02:06:33;28.90;;;15.07;;
62475;SDS011;50739;45.670;11.936;2023-10-09T02:11:40;25.90;;;15.02;;
62475;SDS011;50739;45.670;11.936;2023-10-09T02:16:42;27.60;;;14.80;;
62475;SDS011;50739;45.670;11.936;2023-10-09T02:21:44;26.13;;;14.95;;
62475;SDS011;50739;45.670;11.936;2023-10-09T02:26:48;29.00;;;15.02;;
62475;SDS011;50739;45.670;11.936;2023-10-09T02:32:04;27.70;;;15.07;;
62475;SDS011;50739;45.670;11.936;2023-10-09T02:37:16;29.13;;;15.40;;
62475;SDS011;50739;45.670;11.936;2023-10-09T02:42:25;27.42;;;15.25;;
62475;SDS011;50739;45.670;11.936;2023-10-09T02:47:28;26.73;;;14.83;;
62475;SDS011;50739;45.670;11.936;2023-10-09T02:52:32;27.33;;;15.40;;
62475;SDS011;50739;45.670;11.936;2023-10-09T02:57:42;27.17;;;14.63;;
62475;SDS011;50739;45.670;11.936;2023-10-09T03:02:45;33.10;;;18.00;;
62475;SDS011;50739;45.670;11.936;2023-10-09T03:07:50;32.33;;;17.42;;
62475;SDS011;50739;45.670;11.936;2023-10-09T03:12:55;31.25;;;17.52;;
62475;SDS011;50739;45.670;11.936;2023-10-09T03:18:00;33.45;;;17.63;;
62475;SDS011;50739;45.670;11.936;2023-10-09T03:23:05;31.33;;;18.08;;
62475;SDS011;50739;45.670;11.936;2023-10-09T03:28:11;31.13;;;17.42;;
62475;SDS011;50739;45.670;11.936;2023-10-09T03:33:16;32.27;;;18.20;;
62475;SDS011;50739;45.670;11.936;2023-10-09T03:38:19;31.83;;;17.55;;
62475;SDS011;50739;45.670;11.936;2023-10-09T03:43:23;31.65;;;17.77;;
62475;SDS011;50739;45.670;11.936;2023-10-09T03:48:25;31.02;;;18.45;;
62475;SDS011;50739;45.670;11.936;2023-10-09T03:53:32;35.23;;;19.10;;
62475;SDS011;50739;45.670;11.936;2023-10-09T03:58:38;32.65;;;18.70;;
62475;SDS011;50739;45.670;11.936;2023-10-09T04:03:43;32.78;;;18.13;;
62475;SDS011;50739;45.670;11.936;2023-10-09T04:08:46;36.63;;;19.63;;
62475;SDS011;50739;45.670;11.936;2023-10-09T04:13:50;37.57;;;20.47;;
62475;SDS011;50739;45.670;11.936;2023-10-09T04:18:54;44.22;;;22.55;;
62475;SDS011;50739;45.670;11.936;2023-10-09T04:23:57;41.00;;;23.00;;
62475;SDS011;50739;45.670;11.936;2023-10-09T04:29:18;44.75;;;24.08;;
62475;SDS011;50739;45.670;11.936;2023-10-09T04:34:26;40.88;;;23.00;;
62475;SDS011;50739;45.670;11.936;2023-10-09T04:39:35;41.97;;;23.13;;
62475;SDS011;50739;45.670;11.936;2023-10-09T04:44:48;42.90;;;22.73;;
62475;SDS011;50739;45.670;11.936;2023-10-09T04:50:21;41.60;;;22.05;;
62475;SDS011;50739;45.670;11.936;2023-10-09T04:56:07;40.10;;;22.40;;
62475;SDS011;50739;45.670;11.936;2023-10-09T05:01:17;37.30;;;21.47;;
62475;SDS011;50739;45.670;11.936;2023-10-09T05:06:36;38.30;;;19.90;;
62475;SDS011;50739;45.670;11.936;2023-10-09T05:11:55;34.42;;;18.67;;
62475;SDS011;50739;45.670;11.936;2023-10-09T05:17:11;31.17;;;17.60;;
62475;SDS011;50739;45.670;11.936;2023-10-09T05:22:17;34.47;;;18.00;;
62475;SDS011;50739;45.670;11.936;2023-10-09T05:27:37;30.70;;;17.23;;
62475;SDS011;50739;45.670;11.936;2023-10-09T05:32:53;27.70;;;16.50;;
62475;SDS011;50739;45.670;11.936;2023-10-09T05:38:22;33.00;;;16.02;;
62475;SDS011;50739;45.670;11.936;2023-10-09T05:43:25;32.45;;;16.42;;
62475;SDS011;50739;45.670;11.936;2023-10-09T05:48:43;27.38;;;15.13;;
62475;SDS011;50739;45.670;11.936;2023-10-09T05:53:55;26.67;;;14.90;;
62475;SDS011;50739;45.670;11.936;2023-10-09T05:59:12;30.17;;;15.10;;
62475;SDS011;50739;45.670;11.936;2023-10-09T06:04:33;27.00;;;15.23;;
62475;SDS011;50739;45.670;11.936;2023-10-09T06:09:50;25.60;;;14.10;;
62475;SDS011;50739;45.670;11.936;2023-10-09T06:14:53;24.65;;;14.48;;
62475;SDS011;50739;45.670;11.936;2023-10-09T06:20:20;27.48;;;15.02;;
62475;SDS011;50739;45.670;11.936;2023-10-09T06:25:43;29.42;;;15.40;;
62475;SDS011;50739;45.670;11.936;2023-10-09T06:30:51;30.35;;;16.42;;
62475;SDS011;50739;45.670;11.936;2023-10-09T06:35:55;28.07;;;15.50;;
62475;SDS011;50739;45.670;11.936;2023-10-09T06:41:08;30.30;;;16.60;;
62475;SDS011;50739;45.670;11.936;2023-10-09T06:46:35;27.17;;;15.00;;
62475;SDS011;50739;45.670;11.936;2023-10-09T06:51:54;26.53;;;15.63;;
62475;SDS011;50739;45.670;11.936;2023-10-09T06:57:14;31.35;;;16.27;;
62475;SDS011;50739;45.670;11.936;2023-10-09T07:02:31;34.23;;;15.60;;
62475;SDS011;50739;45.670;11.936;2023-10-09T07:07:47;27.40;;;15.35;;
62475;SDS011;50739;45.670;11.936;2023-10-09T07:13:16;27.40;;;14.80;;
62475;SDS011;50739;45.670;11.936;2023-10-09T07:18:19;26.83;;;15.27;;
62475;SDS011;50739;45.670;11.936;2023-10-09T07:23:25;24.65;;;14.88;;
62475;SDS011;50739;45.670;11.936;2023-10-09T07:28:33;29.23;;;14.60;;
62475;SDS011;50739;45.670;11.936;2023-10-09T07:33:43;26.00;;;14.75;;
62475;SDS011;50739;45.670;11.936;2023-10-09T07:39:00;29.70;;;14.63;;
62475;SDS011;50739;45.670;11.936;2023-10-09T07:44:04;24.25;;;13.35;;
62475;SDS011;50739;45.670;11.936;2023-10-09T07:49:37;26.37;;;13.63;;
62475;SDS011;50739;45.670;11.936;2023-10-09T07:54:41;25.10;;;13.23;;
62475;SDS011;50739;45.670;11.936;2023-10-09T07:59:50;20.13;;;12.00;;
62475;SDS011;50739;45.670;11.936;2023-10-09T08:05:01;22.47;;;12.00;;
62475;SDS011;50739;45.670;11.936;2023-10-09T08:10:20;22.77;;;11.80;;
62475;SDS011;50739;45.670;11.936;2023-10-09T08:15:40;20.60;;;11.47;;
62475;SDS011;50739;45.670;11.936;2023-10-09T08:20:53;22.63;;;10.43;;
62475;SDS011;50739;45.670;11.936;2023-10-09T08:26:11;19.90;;;9.23;;
62475;SDS011;50739;45.670;11.936;2023-10-09T08:31:14;16.20;;;8.63;;
62475;SDS011;50739;45.670;11.936;2023-10-09T08:36:35;16.88;;;9.07;;
62475;SDS011;50739;45.670;11.936;2023-10-09T08:41:39;17.08;;;9.07;;
62475;SDS011;50739;45.670;11.936;2023-10-09T08:46:41;21.58;;;11.18;;
62475;SDS011;50739;45.670;11.936;2023-10-09T08:51:45;21.97;;;11.17;;
62475;SDS011;50739;45.670;11.936;2023-10-09T08:56:50;21.08;;;10.65;;
62475;SDS011;50739;45.670;11.936;2023-10-09T09:01:52;18.25;;;9.50;;
62475;SDS011;50739;45.670;11.936;2023-10-09T09:06:59;19.50;;;10.93;;
62475;SDS011;50739;45.670;11.936;2023-10-09T09:12:04;22.27;;;12.02;;
62475;SDS011;50739;45.670;11.936;2023-10-09T09:17:08;21.43;;;12.37;;
62475;SDS011;50739;45.670;11.936;2023-10-09T09:22:11;27.23;;;14.07;;
62475;SDS011;50739;45.670;11.936;2023-10-09T09:27:16;26.50;;;13.73;;
62475;SDS011;50739;45.670;11.936;2023-10-09T09:32:26;30.73;;;16.35;;
62475;SDS011;50739;45.670;11.936;2023-10-09T09:37:36;32.53;;;17.85;;
62475;SDS011;50739;45.670;11.936;2023-10-09T09:42:52;42.50;;;15.88;;
62475;SDS011;50739;45.670;11.936;2023-10-09T09:48:05;31.97;;;15.60;;
62475;SDS011;50739;45.670;11.936;2023-10-09T09:53:16;28.92;;;15.93;;
62475;SDS011;50739;45.670;11.936;2023-10-09T09:58:20;29.27;;;16.13;;
62475;SDS011;50739;45.670;11.936;2023-10-09T10:03:26;28.67;;;15.90;;
62475;SDS011;50739;45.670;11.936;2023-10-09T10:08:33;31.38;;;17.20;;
62475;SDS011;50739;45.670;11.936;2023-10-09T10:13:56;29.38;;;16.42;;
62475;SDS011;50739;45.670;11.936;2023-10-09T10:19:07;31.13;;;16.50;;
62475;SDS011;50739;45.670;11.936;2023-10-09T10:24:40;31.08;;;16.45;;
62475;SDS011;50739;45.670;11.936;2023-10-09T10:35:37;32.40;;;16.95;;
62475;SDS011;50739;45.670;11.936;2023-10-09T10:40:46;29.67;;;16.77;;
62475;SDS011;50739;45.670;11.936;2023-10-09T10:46:02;28.67;;;15.50;;
62475;SDS011;50739;45.670;11.936;2023-10-09T10:51:14;29.33;;;16.75;;
62475;SDS011;50739;45.670;11.936;2023-10-09T10:56:23;29.90;;;16.60;;
62475;SDS011;50739;45.670;11.936;2023-10-09T11:01:38;31.10;;;16.03;;
62475;SDS011;50739;45.670;11.936;2023-10-09T11:07:00;32.97;;;17.58;;
62475;SDS011;50739;45.670;11.936;2023-10-09T11:12:10;26.25;;;16.25;;
62475;SDS011;50739;45.670;11.936;2023-10-09T11:17:24;29.33;;;16.87;;
62475;SDS011;50739;45.670;11.936;2023-10-09T11:22:28;29.55;;;15.43;;
62475;SDS011;50739;45.670;11.936;2023-10-09T11:27:36;27.77;;;16.40;;
62475;SDS011;50739;45.670;11.936;2023-10-09T11:32:42;34.78;;;17.80;;
62475;SDS011;50739;45.670;11.936;2023-10-09T11:37:44;28.60;;;15.73;;
62475;SDS011;50739;45.670;11.936;2023-10-09T11:42:59;30.17;;;16.07;;
62475;SDS011;50739;45.670;11.936;2023-10-09T11:48:17;26.37;;;15.23;;
62475;SDS011;50739;45.670;11.936;2023-10-09T11:53:29;28.03;;;15.63;;
62475;SDS011;50739;45.670;11.936;2023-10-09T11:58:43;30.48;;;16.92;;
62475;SDS011;50739;45.670;11.936;2023-10-09T12:03:52;27.27;;;15.65;;
62475;SDS011;50739;45.670;11.936;2023-10-09T12:08:54;31.17;;;15.15;;
62475;SDS011;50739;45.670;11.936;2023-10-09T12:13:58;28.45;;;15.93;;
62475;SDS011;50739;45.670;11.936;2023-10-09T12:19:02;28.70;;;16.35;;
62475;SDS011;50739;45.670;11.936;2023-10-09T12:24:09;29.75;;;15.73;;
62475;SDS011;50739;45.670;11.936;2023-10-09T12:29:12;31.60;;;14.70;;
62475;SDS011;50739;45.670;11.936;2023-10-09T12:34:16;29.48;;;14.73;;
62475;SDS011;50739;45.670;11.936;2023-10-09T12:39:19;24.52;;;14.18;;
62475;SDS011;50739;45.670;11.936;2023-10-09T12:44:22;28.40;;;15.33;;
62475;SDS011;50739;45.670;11.936;2023-10-09T12:49:29;26.80;;;14.02;;
62475;SDS011;50739;45.670;11.936;2023-10-09T12:54:31;27.73;;;14.37;;
62475;SDS011;50739;45.670;11.936;2023-10-09T12:59:33;25.00;;;14.32;;
62475;SDS011;50739;45.670;11.936;2023-10-09T13:04:37;25.48;;;15.15;;
62475;SDS011;50739;45.670;11.936;2023-10-09T13:09:42;24.37;;;14.10;;
62475;SDS011;50739;45.670;11.936;2023-10-09T13:14:52;23.35;;;13.45;;
62475;SDS011;50739;45.670;11.936;2023-10-09T13:19:56;25.17;;;12.82;;
62475;SDS011;50739;45.670;11.936;2023-10-09T13:24:58;20.67;;;12.57;;
62475;SDS011;50739;45.670;11.936;2023-10-09T13:30:05;22.27;;;12.87;;
62475;SDS011;50739;45.670;11.936;2023-10-09T13:35:11;22.17;;;13.15;;
62475;SDS011;50739;45.670;11.936;2023-10-09T13:40:15;23.08;;;13.35;;
62475;SDS011;50739;45.670;11.936;2023-10-09T13:45:27;21.00;;;12.35;;
62475;SDS011;50739;45.670;11.936;2023-10-09T13:50:32;22.70;;;12.60;;
62475;SDS011;50739;45.670;11.936;2023-10-09T13:55:36;23.13;;;12.60;;
62475;SDS011;50739;45.670;11.936;2023-10-09T14:00:43;18.67;;;11.38;;
62475;SDS011;50739;45.670;11.936;2023-10-09T14:05:51;24.43;;;12.00;;
62475;SDS011;50739;45.670;11.936;2023-10-09T14:10:55;21.40;;;12.35;;
62475;SDS011;50739;45.670;11.936;2023-10-09T14:15:57;20.10;;;11.40;;
62475;SDS011;50739;45.670;11.936;2023-10-09T14:21:04;22.13;;;12.63;;
62475;SDS011;50739;45.670;11.936;2023-10-09T14:26:16;22.10;;;12.30;;
62475;SDS011;50739;45.670;11.936;2023-10-09T14:31:19;19.25;;;11.85;;
62475;SDS011;50739;45.670;11.936;2023-10-09T14:36:28;24.35;;;13.07;;
62475;SDS011;50739;45.670;11.936;2023-10-09T14:41:34;24.27;;;12.45;;
62475;SDS011;50739;45.670;11.936;2023-10-09T14:46:36;21.98;;;12.52;;
62475;SDS011;50739;45.670;11.936;2023-10-09T14:51:41;20.73;;;12.23;;
62475;SDS011;50739;45.670;11.936;2023-10-09T14:56:46;20.02;;;11.52;;
62475;SDS011;50739;45.670;11.936;2023-10-09T15:01:51;20.60;;;11.60;;
62475;SDS011;50739;45.670;11.936;2023-10-09T15:06:55;24.55;;;12.10;;
62475;SDS011;50739;45.670;11.936;2023-10-09T15:11:58;22.00;;;11.65;;
62475;SDS011;50739;45.670;11.936;2023-10-09T15:17:00;22.42;;;12.63;;
62475;SDS011;50739;45.670;11.936;2023-10-09T15:22:04;18.43;;;11.43;;
62475;SDS011;50739;45.670;11.936;2023-10-09T15:27:10;19.75;;;11.70;;
62475;SDS011;50739;45.670;11.936;2023-10-09T15:32:14;23.75;;;11.73;;
62475;SDS011;50739;45.670;11.936;2023-10-09T15:37:24;19.90;;;11.85;;
62475;SDS011;50739;45.670;11.936;2023-10-09T15:42:27;19.30;;;11.37;;
62475;SDS011;50739;45.670;11.936;2023-10-09T15:47:29;21.55;;;11.50;;
62475;SDS011;50739;45.670;11.936;2023-10-09T15:52:36;23.40;;;11.50;;
62475;SDS011;50739;45.670;11.936;2023-10-09T15:57:39;19.33;;;11.23;;
62475;SDS011;50739;45.670;11.936;2023-10-09T16:02:42;25.03;;;12.27;;
62475;SDS011;50739;45.670;11.936;2023-10-09T16:07:46;20.77;;;11.27;;
62475;SDS011;50739;45.670;11.936;2023-10-09T16:12:49;23.30;;;11.13;;
62475;SDS011;50739;45.670;11.936;2023-10-09T16:17:52;17.75;;;10.70;;
62475;SDS011;50739;45.670;11.936;2023-10-09T16:23:00;20.73;;;11.25;;
62475;SDS011;50739;45.670;11.936;2023-10-09T16:28:04;24.20;;;11.10;;
62475;SDS011;50739;45.670;11.936;2023-10-09T16:33:09;21.25;;;10.38;;
62475;SDS011;50739;45.670;11.936;2023-10-09T16:38:13;21.87;;;11.13;;
62475;SDS011;50739;45.670;11.936;2023-10-09T16:43:15;22.27;;;11.63;;
62475;SDS011;50739;45.670;11.936;2023-10-09T16:48:18;24.93;;;11.20;;
62475;SDS011;50739;45.670;11.936;2023-10-09T16:53:23;20.67;;;10.23;;
62475;SDS011;50739;45.670;11.936;2023-10-09T16:58:26;16.60;;;9.37;;
62475;SDS011;50739;45.670;11.936;2023-10-09T17:03:28;18.30;;;9.25;;
62475;SDS011;50739;45.670;11.936;2023-10-09T17:08:32;23.08;;;9.43;;
62475;SDS011;50739;45.670;11.936;2023-10-09T17:13:40;17.67;;;8.77;;
62475;SDS011;50739;45.670;11.936;2023-10-09T17:18:45;14.35;;;7.82;;
62475;SDS011;50739;45.670;11.936;2023-10-09T17:23:49;14.57;;;8.75;;
62475;SDS011;50739;45.670;11.936;2023-10-09T17:28:54;15.73;;;8.03;;
62475;SDS011;50739;45.670;11.936;2023-10-09T17:33:57;15.55;;;8.00;;
62475;SDS011;50739;45.670;11.936;2023-10-09T17:39:04;15.75;;;8.60;;
62475;SDS011;50739;45.670;11.936;2023-10-09T17:44:09;20.75;;;10.95;;
62475;SDS011;50739;45.670;11.936;2023-10-09T17:49:11;16.77;;;10.17;;
62475;SDS011;50739;45.670;11.936;2023-10-09T17:54:15;20.55;;;10.13;;
62475;SDS011;50739;45.670;11.936;2023-10-09T17:59:17;22.90;;;12.13;;
62475;SDS011;50739;45.670;11.936;2023-10-09T18:04:19;25.38;;;13.93;;
62475;SDS011;50739;45.670;11.936;2023-10-09T18:09:25;29.90;;;14.95;;
62475;SDS011;50739;45.670;11.936;2023-10-09T18:14:30;31.67;;;15.27;;
62475;SDS011;50739;45.670;11.936;2023-10-09T18:19:33;33.45;;;17.73;;
62475;SDS011;50739;45.670;11.936;2023-10-09T18:24:40;34.00;;;18.37;;
62475;SDS011;50739;45.670;11.936;2023-10-09T18:29:43;41.93;;;20.53;;
62475;SDS011;50739;45.670;11.936;2023-10-09T18:34:49;41.55;;;21.17;;
62475;SDS011;50739;45.670;11.936;2023-10-09T18:39:52;39.33;;;20.80;;
62475;SDS011;50739;45.670;11.936;2023-10-09T18:44:55;35.27;;;19.43;;
62475;SDS011;50739;45.670;11.936;2023-10-09T18:49:57;35.78;;;18.23;;
62475;SDS011;50739;45.670;11.936;2023-10-09T18:55:01;30.02;;;17.27;;
62475;SDS011;50739;45.670;11.936;2023-10-09T19:00:07;30.53;;;17.27;;
62475;SDS011;50739;45.670;11.936;2023-10-09T19:05:12;33.50;;;19.02;;
62475;SDS011;50739;45.670;11.936;2023-10-09T19:10:16;36.28;;;19.08;;
62475;SDS011;50739;45.670;11.936;2023-10-09T19:15:21;31.50;;;18.77;;
62475;SDS011;50739;45.670;11.936;2023-10-09T19:20:25;29.98;;;17.85;;
62475;SDS011;50739;45.670;11.936;2023-10-09T19:25:31;29.80;;;17.33;;
62475;SDS011;50739;45.670;11.936;2023-10-09T19:30:33;34.07;;;17.30;;
62475;SDS011;50739;45.670;11.936;2023-10-09T19:35:36;33.35;;;16.77;;
62475;SDS011;50739;45.670;11.936;2023-10-09T19:40:44;28.52;;;16.60;;
62475;SDS011;50739;45.670;11.936;2023-10-09T19:46:00;31.00;;;16.47;;
62475;SDS011;50739;45.670;11.936;2023-10-09T19:51:04;28.00;;;16.47;;
62475;SDS011;50739;45.670;11.936;2023-10-09T19:56:08;31.87;;;17.40;;
62475;SDS011;50739;45.670;11.936;2023-10-09T20:01:11;36.90;;;19.03;;
62475;SDS011;50739;45.670;11.936;2023-10-09T20:06:15;36.17;;;18.37;;
62475;SDS011;50739;45.670;11.936;2023-10-09T20:11:19;34.10;;;18.02;;
62475;SDS011;50739;45.670;11.936;2023-10-09T20:16:23;36.30;;;18.73;;
62475;SDS011;50739;45.670;11.936;2023-10-09T20:21:27;36.03;;;18.90;;
62475;SDS011;50739;45.670;11.936;2023-10-09T20:26:30;39.05;;;19.73;;
62475;SDS011;50739;45.670;11.936;2023-10-09T20:31:32;36.93;;;20.17;;
62475;SDS011;50739;45.670;11.936;2023-10-09T20:36:36;40.05;;;20.95;;
62475;SDS011;50739;45.670;11.936;2023-10-09T20:41:43;43.55;;;22.90;;
62475;SDS011;50739;45.670;11.936;2023-10-09T20:46:46;44.50;;;22.65;;
62475;SDS011;50739;45.670;11.936;2023-10-09T20:51:49;39.58;;;20.88;;
62475;SDS011;50739;45.670;11.936;2023-10-09T20:56:54;34.85;;;20.23;;
62475;SDS011;50739;45.670;11.936;2023-10-09T21:01:58;33.75;;;19.67;;
62475;SDS011;50739;45.670;11.936;2023-10-09T21:07:01;39.25;;;19.05;;
62475;SDS011;50739;45.670;11.936;2023-10-09T21:12:05;31.65;;;18.77;;
62475;SDS011;50739;45.670;11.936;2023-10-09T21:17:08;32.97;;;17.70;;
62475;SDS011;50739;45.670;11.936;2023-10-09T21:22:10;31.17;;;17.15;;
62475;SDS011;50739;45.670;11.936;2023-10-09T21:27:14;29.23;;;17.27;;
62475;SDS011;50739;45.670;11.936;2023-10-09T21:32:17;27.40;;;15.90;;
62475;SDS011;50739;45.670;11.936;2023-10-09T21:37:20;28.73;;;16.17;;
62475;SDS011;50739;45.670;11.936;2023-10-09T21:42:23;28.08;;;15.93;;
62475;SDS011;50739;45.670;11.936;2023-10-09T21:47:26;26.60;;;13.98;;
62475;SDS011;50739;45.670;11.936;2023-10-09T21:52:28;21.37;;;14.07;;
62475;SDS011;50739;45.670;11.936;2023-10-09T21:57:32;23.55;;;14.13;;
62475;SDS011;50739;45.670;11.936;2023-10-09T22:02:35;30.38;;;14.70;;
62475;SDS011;50739;45.670;11.936;2023-10-09T22:07:38;24.05;;;14.57;;
62475;SDS011;50739;45.670;11.936;2023-10-09T22:12:44;20.63;;;13.35;;
62475;SDS011;50739;45.670;11.936;2023-10-09T22:17:47;21.50;;;13.77;;
62475;SDS011;50739;45.670;11.936;2023-10-09T22:22:50;20.80;;;13.05;;
62475;SDS011;50739;45.670;11.936;2023-10-09T22:27:58;23.60;;;13.30;;
62475;SDS011;50739;45.670;11.936;2023-10-09T22:33:04;20.58;;;12.85;;
62475;SDS011;50739;45.670;11.936;2023-10-09T22:38:13;19.98;;;12.93;;
62475;SDS011;50739;45.670;11.936;2023-10-09T22:43:18;20.95;;;12.45;;
62475;SDS011;50739;45.670;11.936;2023-10-09T22:48:24;23.38;;;13.07;;
62475;SDS011;50739;45.670;11.936;2023-10-09T22:53:28;23.65;;;12.20;;
62475;SDS011;50739;45.670;11.936;2023-10-09T23:03:53;18.90;;;11.23;;
62475;SDS011;50739;45.670;11.936;2023-10-09T23:09:16;17.67;;;12.15;;
62475;SDS011;50739;45.670;11.936;2023-10-09T23:14:31;21.87;;;12.50;;
62475;SDS011;50739;45.670;11.936;2023-10-09T23:19:35;21.30;;;11.45;;
62475;SDS011;50739;45.670;11.936;2023-10-09T23:24:46;21.10;;;11.70;;
62475;SDS011;50739;45.670;11.936;2023-10-09T23:29:54;17.45;;;11.30;;
62475;SDS011;50739;45.670;11.936;2023-10-09T23:35:07;21.00;;;11.73;;
62475;SDS011;50739;45.670;11.936;2023-10-09T23:40:10;21.70;;;11.77;;
62475;SDS011;50739;45.670;11.936;2023-10-09T23:45:17;22.03;;;12.33;;
62475;SDS011;50739;45.670;11.936;2023-10-09T23:50:22;23.40;;;11.73;;
62475;SDS011;50739;45.670;11.936;2023-10-09T23:55:25;21.93;;;11.97;;
